Time;durP1;ratioP1;P1;durP2;ratioP2;P2;SDS_P1;SDS_P2;PMS_P1;PMS_P2;Temp;Humidity;BMP_temperature;BMP_pressure;BME280_temperature;BME280_humidity;BME280_pressure;Samples;Min_cycle;Max_cycle;Signal;HPM_P1;HPM_P2
2023/06/27 00:00:18;;;;;;;3.65;1.70;;;;;;;;;;5015910;28;20187;-52
2023/06/27 00:02:48;;;;;;;2.80;1.70;;;;;;;;;;5033275;28;20187;-52
2023/06/27 00:05:14;;;;;;;3.35;1.90;;;;;;;;;;5017341;28;20256;-52
2023/06/27 00:07:43;;;;;;;5.88;1.75;;;;;;;;;;5030596;28;20753;-52
2023/06/27 00:10:12;;;;;;;3.03;1.83;;;;;;;;;;5035095;28;20237;-52
2023/06/27 00:12:38;;;;;;;4.28;1.80;;;;;;;;;;5025360;28;20471;-52
2023/06/27 00:15:07;;;;;;;2.95;1.60;;;;;;;;;;5034360;28;20560;-52
2023/06/27 00:17:34;;;;;;;3.72;1.80;;;;;;;;;;5030585;28;20191;-52
2023/06/27 00:20:00;;;;;;;2.33;1.80;;;;;;;;;;5026399;28;20188;-52
2023/06/27 00:22:27;;;;;;;2.65;1.48;;;;;;;;;;5026137;28;20180;-52
2023/06/27 00:24:53;;;;;;;3.05;2.05;;;;;;;;;;5012421;28;20176;-52
2023/06/27 00:27:19;;;;;;;2.78;1.83;;;;;;;;;;5017371;28;20497;-52
2023/06/27 00:29:45;;;;;;;4.50;1.98;;;;;;;;;;5017345;28;20188;-52
2023/06/27 00:32:11;;;;;;;2.72;1.73;;;;;;;;;;5020058;28;20588;-52
2023/06/27 00:34:37;;;;;;;5.97;1.80;;;;;;;;;;5030350;28;20564;-52
2023/06/27 00:37:03;;;;;;;2.20;1.60;;;;;;;;;;5030281;28;20231;-52
2023/06/27 00:39:29;;;;;;;1.83;1.55;;;;;;;;;;5034396;28;20223;-52
2023/06/27 00:41:55;;;;;;;3.92;1.70;;;;;;;;;;5034600;28;20184;-52
2023/06/27 00:44:21;;;;;;;1.85;1.58;;;;;;;;;;5033412;28;20238;-52
2023/06/27 00:46:49;;;;;;;2.78;1.55;;;;;;;;;;5033479;28;20191;-52
2023/06/27 00:49:16;;;;;;;2.13;1.92;;;;;;;;;;5031275;28;20184;-52
2023/06/27 00:51:43;;;;;;;3.30;1.70;;;;;;;;;;5027539;28;20187;-52
2023/06/27 00:54:09;;;;;;;2.25;1.55;;;;;;;;;;5033111;28;20187;-52
2023/06/27 00:56:35;;;;;;;2.95;1.70;;;;;;;;;;5030947;28;20551;-52
2023/06/27 00:59:02;;;;;;;2.17;1.70;;;;;;;;;;5034233;28;20187;-52
2023/06/27 01:01:31;;;;;;;2.17;1.60;;;;;;;;;;5034322;28;20184;-52
2023/06/27 01:03:57;;;;;;;3.45;1.52;;;;;;;;;;5033908;28;20187;-51
2023/06/27 01:06:49;;;;;;;2.83;1.70;;;;;;;;;;5031693;28;20215;-51
2023/06/27 01:09:36;;;;;;;2.58;1.50;;;;;;;;;;5030705;28;20191;-52
2023/06/27 01:12:09;;;;;;;6.05;1.63;;;;;;;;;;5033860;28;20191;-52
2023/06/27 01:14:36;;;;;;;4.10;1.65;;;;;;;;;;5033714;28;20627;-52
2023/06/27 01:17:02;;;;;;;5.00;1.52;;;;;;;;;;5033255;28;20235;-52
2023/06/27 01:19:30;;;;;;;3.50;1.60;;;;;;;;;;5031233;28;20208;-52
2023/06/27 01:22:00;;;;;;;4.40;1.67;;;;;;;;;;5014546;28;20181;-52
2023/06/27 01:24:26;;;;;;;2.00;1.42;;;;;;;;;;5025255;28;20184;-52
2023/06/27 01:26:53;;;;;;;3.13;1.75;;;;;;;;;;5033286;28;20478;-52
2023/06/27 01:29:18;;;;;;;2.55;1.40;;;;;;;;;;5016257;28;20203;-52
2023/06/27 01:31:57;;;;;;;2.45;1.40;;;;;;;;;;5014415;28;20553;-52
2023/06/27 01:34:28;;;;;;;3.53;1.42;;;;;;;;;;5020935;28;20865;-52
2023/06/27 01:36:59;;;;;;;2.70;1.65;;;;;;;;;;5016412;28;20630;-52
2023/06/27 01:39:33;;;;;;;1.30;1.20;;;;;;;;;;5030261;28;20275;-52
2023/06/27 01:42:03;;;;;;;3.17;1.20;;;;;;;;;;5028838;28;20448;-52
2023/06/27 01:44:30;;;;;;;2.72;1.30;;;;;;;;;;5033442;28;20377;-52
2023/06/27 01:46:56;;;;;;;1.30;1.15;;;;;;;;;;5011216;28;20184;-52
2023/06/27 01:49:23;;;;;;;2.13;1.30;;;;;;;;;;5033121;28;20190;-52
2023/06/27 01:51:49;;;;;;;3.05;1.00;;;;;;;;;;5025575;28;20236;-52
2023/06/27 01:54:15;;;;;;;3.40;1.63;;;;;;;;;;5033528;28;20506;-52
2023/06/27 01:56:40;;;;;;;2.30;1.45;;;;;;;;;;5031800;28;20612;-52
2023/06/27 01:59:06;;;;;;;3.85;1.20;;;;;;;;;;5020175;28;20206;-52
2023/06/27 02:01:32;;;;;;;1.88;1.25;;;;;;;;;;5028766;28;20491;-52
2023/06/27 02:03:58;;;;;;;1.42;1.20;;;;;;;;;;5036986;28;20261;-51
2023/06/27 02:06:24;;;;;;;3.63;1.40;;;;;;;;;;5036978;28;20186;-51
2023/06/27 02:08:50;;;;;;;2.22;1.30;;;;;;;;;;5037638;28;20211;-52
2023/06/27 02:11:16;;;;;;;1.80;1.25;;;;;;;;;;5028980;28;20198;-51
2023/06/27 02:13:42;;;;;;;1.63;1.27;;;;;;;;;;5037111;28;20184;-52
2023/06/27 02:16:09;;;;;;;1.65;1.40;;;;;;;;;;5034426;28;20298;-52
2023/06/27 02:18:35;;;;;;;3.25;1.20;;;;;;;;;;5037101;28;20191;-51
2023/06/27 02:21:00;;;;;;;2.03;1.30;;;;;;;;;;5011700;28;20175;-52
2023/06/27 02:23:26;;;;;;;1.75;1.45;;;;;;;;;;5035713;28;20195;-52
2023/06/27 02:25:52;;;;;;;1.83;1.15;;;;;;;;;;5035740;28;20489;-52
2023/06/27 02:28:18;;;;;;;2.15;1.30;;;;;;;;;;5036955;28;20191;-52
2023/06/27 02:30:44;;;;;;;1.50;1.17;;;;;;;;;;5033036;28;20197;-52
2023/06/27 02:33:10;;;;;;;2.90;1.20;;;;;;;;;;5025434;28;20180;-52
2023/06/27 02:35:36;;;;;;;2.25;1.13;;;;;;;;;;5033204;28;20249;-52
2023/06/27 02:38:02;;;;;;;3.58;1.10;;;;;;;;;;5036350;28;20187;-52
2023/06/27 02:40:28;;;;;;;1.33;1.20;;;;;;;;;;5036633;28;20255;-52
2023/06/27 02:42:54;;;;;;;2.63;1.20;;;;;;;;;;5034158;28;20184;-52
2023/06/27 02:45:20;;;;;;;1.67;1.10;;;;;;;;;;5029735;28;20192;-51
2023/06/27 02:47:46;;;;;;;2.60;1.30;;;;;;;;;;5040445;28;20234;-52
2023/06/27 02:50:12;;;;;;;1.05;0.93;;;;;;;;;;5030025;28;20270;-52
2023/06/27 02:52:37;;;;;;;2.78;1.10;;;;;;;;;;5028483;28;20276;-51
2023/06/27 02:55:03;;;;;;;1.45;1.20;;;;;;;;;;5033913;28;20190;-52
2023/06/27 02:57:30;;;;;;;1.35;1.10;;;;;;;;;;5036130;28;20222;-51
2023/06/27 02:59:56;;;;;;;1.75;1.20;;;;;;;;;;5036073;28;20297;-51
2023/06/27 03:02:22;;;;;;;3.40;1.40;;;;;;;;;;5034729;28;20263;-52
2023/06/27 03:04:48;;;;;;;2.03;1.10;;;;;;;;;;5035971;28;20184;-52
2023/06/27 03:07:14;;;;;;;1.58;1.10;;;;;;;;;;5035076;28;20180;-52
2023/06/27 03:09:40;;;;;;;1.05;1.02;;;;;;;;;;5036649;28;20195;-52
2023/06/27 03:12:06;;;;;;;2.13;1.02;;;;;;;;;;5036601;28;20195;-51
2023/06/27 03:14:32;;;;;;;1.67;1.17;;;;;;;;;;5035416;28;20184;-52
2023/06/27 03:16:58;;;;;;;1.60;0.88;;;;;;;;;;5026548;28;20214;-52
2023/06/27 03:19:24;;;;;;;3.13;1.10;;;;;;;;;;5027361;28;20194;-52
2023/06/27 03:21:50;;;;;;;1.25;1.00;;;;;;;;;;5022694;23;20224;-51
2023/06/27 03:24:16;;;;;;;2.08;1.00;;;;;;;;;;5018486;28;20193;-52
2023/06/27 03:26:42;;;;;;;1.85;1.08;;;;;;;;;;5016173;28;20191;-52
2023/06/27 03:29:07;;;;;;;4.38;1.30;;;;;;;;;;5020480;28;20227;-52
2023/06/27 03:31:33;;;;;;;1.95;1.20;;;;;;;;;;5015427;28;20189;-52
2023/06/27 03:33:59;;;;;;;2.05;1.02;;;;;;;;;;5015234;28;20260;-52
2023/06/27 03:36:26;;;;;;;4.47;1.50;;;;;;;;;;5016950;28;20200;-52
2023/06/27 03:38:52;;;;;;;12.25;2.85;;;;;;;;;;5022496;28;20546;-51
2023/06/27 03:41:19;;;;;;;13.20;3.30;;;;;;;;;;5015343;28;20185;-52
2023/06/27 03:43:44;;;;;;;13.02;3.25;;;;;;;;;;5016878;28;20559;-52
2023/06/27 03:46:12;;;;;;;18.85;3.60;;;;;;;;;;5018058;28;20199;-52
2023/06/27 03:48:38;;;;;;;10.60;2.50;;;;;;;;;;5018617;28;20185;-52
2023/06/27 03:51:04;;;;;;;17.20;3.13;;;;;;;;;;5014016;28;20173;-52
2023/06/27 03:53:30;;;;;;;15.00;3.90;;;;;;;;;;5015219;28;20534;-52
2023/06/27 03:55:56;;;;;;;20.25;3.70;;;;;;;;;;5014233;28;20200;-52
2023/06/27 03:58:22;;;;;;;20.88;3.42;;;;;;;;;;5011501;28;20470;-52
2023/06/27 04:00:48;;;;;;;15.23;3.63;;;;;;;;;;5015064;28;20185;-52
2023/06/27 04:03:14;;;;;;;12.38;2.63;;;;;;;;;;5014883;28;20211;-52
2023/06/27 04:05:40;;;;;;;6.78;2.55;;;;;;;;;;5014361;28;20251;-52
2023/06/27 04:08:06;;;;;;;11.77;2.75;;;;;;;;;;5010535;28;20498;-52
2023/06/27 04:10:32;;;;;;;4.88;2.08;;;;;;;;;;5017206;28;20409;-52
2023/06/27 04:12:58;;;;;;;7.22;2.30;;;;;;;;;;5017260;28;20230;-53
2023/06/27 04:15:24;;;;;;;8.65;2.15;;;;;;;;;;5016922;28;20551;-52
2023/06/27 04:17:49;;;;;;;7.20;2.28;;;;;;;;;;5016669;28;20255;-52
2023/06/27 04:20:15;;;;;;;5.00;1.90;;;;;;;;;;5016922;28;20172;-52
2023/06/27 04:22:41;;;;;;;9.45;2.10;;;;;;;;;;4983430;28;995668;-52
2023/06/27 04:25:10;;;;;;;5.85;1.50;;;;;;;;;;5017801;28;20171;-52
2023/06/27 04:27:36;;;;;;;5.25;1.27;;;;;;;;;;5017583;28;20165;-52
2023/06/27 04:30:03;;;;;;;4.03;1.33;;;;;;;;;;5017787;28;20179;-52
2023/06/27 04:32:29;;;;;;;3.17;1.15;;;;;;;;;;5017841;28;20161;-53
2023/06/27 04:34:58;;;;;;;4.53;1.20;;;;;;;;;;5017748;28;20256;-52
2023/06/27 04:37:24;;;;;;;4.72;1.70;;;;;;;;;;5017347;28;20255;-52
2023/06/27 04:39:51;;;;;;;3.58;1.48;;;;;;;;;;5017563;28;20176;-52
2023/06/27 04:42:17;;;;;;;3.97;1.27;;;;;;;;;;5017640;28;20548;-52
2023/06/27 04:44:43;;;;;;;1.95;1.17;;;;;;;;;;5017333;28;20262;-52
2023/06/27 04:47:09;;;;;;;4.22;1.10;;;;;;;;;;5017275;28;20169;-52
2023/06/27 04:49:35;;;;;;;2.95;1.50;;;;;;;;;;5016588;28;20169;-52
2023/06/27 04:52:01;;;;;;;4.53;1.30;;;;;;;;;;5017306;28;20165;-52
2023/06/27 04:54:27;;;;;;;2.28;1.10;;;;;;;;;;5017350;28;20156;-52
2023/06/27 04:56:52;;;;;;;5.10;1.30;;;;;;;;;;5016841;28;20455;-53
2023/06/27 04:59:19;;;;;;;2.13;1.02;;;;;;;;;;5014762;28;20188;-52
2023/06/27 05:01:45;;;;;;;2.20;1.20;;;;;;;;;;5014171;28;20263;-52
2023/06/27 05:04:11;;;;;;;3.47;1.60;;;;;;;;;;5013003;28;20189;-53
2023/06/27 05:06:37;;;;;;;2.80;1.00;;;;;;;;;;5012865;28;20184;-52
2023/06/27 05:09:03;;;;;;;4.15;1.02;;;;;;;;;;5016206;28;20220;-52
2023/06/27 05:11:30;;;;;;;2.42;1.10;;;;;;;;;;5016735;28;20647;-52
2023/06/27 05:13:56;;;;;;;6.32;1.30;;;;;;;;;;5017083;28;20319;-52
2023/06/27 05:16:22;;;;;;;2.45;1.10;;;;;;;;;;5008062;28;20598;-52
2023/06/27 05:18:48;;;;;;;2.45;1.20;;;;;;;;;;5013097;28;20184;-52
2023/06/27 05:21:14;;;;;;;1.40;0.80;;;;;;;;;;5014116;28;20258;-52
2023/06/27 05:23:40;;;;;;;1.60;0.80;;;;;;;;;;4995615;28;20283;-52
2023/06/27 05:26:06;;;;;;;3.10;1.23;;;;;;;;;;4997836;28;20585;-52
2023/06/27 05:28:34;;;;;;;1.88;1.10;;;;;;;;;;4997335;28;20234;-52
2023/06/27 05:31:00;;;;;;;5.18;1.55;;;;;;;;;;5013075;28;20191;-52
2023/06/27 05:33:26;;;;;;;5.00;0.98;;;;;;;;;;5014095;28;20192;-53
2023/06/27 05:35:52;;;;;;;3.70;1.10;;;;;;;;;;5013391;28;20216;-52
2023/06/27 05:38:18;;;;;;;4.15;0.90;;;;;;;;;;5012960;28;20242;-52
2023/06/27 05:40:44;;;;;;;4.00;1.25;;;;;;;;;;5013249;28;20191;-52
2023/06/27 05:43:10;;;;;;;3.63;1.23;;;;;;;;;;5021260;28;20189;-52
2023/06/27 05:45:35;;;;;;;2.35;1.08;;;;;;;;;;5013774;28;20192;-52
2023/06/27 05:48:02;;;;;;;2.95;0.93;;;;;;;;;;5013329;28;20212;-52
2023/06/27 05:50:28;;;;;;;4.03;1.13;;;;;;;;;;5013835;28;20622;-52
2023/06/27 05:52:54;;;;;;;3.28;1.40;;;;;;;;;;5020293;28;20610;-52
2023/06/27 05:55:20;;;;;;;3.83;1.58;;;;;;;;;;5013153;28;20303;-52
2023/06/27 05:57:46;;;;;;;2.85;1.17;;;;;;;;;;5013423;28;20184;-52
2023/06/27 06:00:13;;;;;;;3.15;0.98;;;;;;;;;;5013923;28;20222;-52
2023/06/27 06:02:39;;;;;;;3.35;1.00;;;;;;;;;;4996336;28;20198;-52
2023/06/27 06:05:05;;;;;;;3.65;1.08;;;;;;;;;;5006249;28;20177;-52
2023/06/27 06:07:32;;;;;;;2.20;1.00;;;;;;;;;;5012542;28;20299;-52
2023/06/27 06:09:58;;;;;;;3.80;1.30;;;;;;;;;;5013265;28;20255;-52
2023/06/27 06:12:24;;;;;;;2.05;1.10;;;;;;;;;;5019219;28;20497;-52
2023/06/27 06:14:49;;;;;;;3.38;1.40;;;;;;;;;;5015374;28;20193;-52
2023/06/27 06:17:15;;;;;;;2.00;1.00;;;;;;;;;;4994566;28;20482;-52
2023/06/27 06:19:41;;;;;;;3.53;1.25;;;;;;;;;;5011608;28;20280;-52
2023/06/27 06:22:07;;;;;;;1.33;0.95;;;;;;;;;;5008497;28;20246;-52
2023/06/27 06:24:33;;;;;;;2.28;1.02;;;;;;;;;;5017398;28;20185;-52
2023/06/27 06:26:59;;;;;;;3.22;1.10;;;;;;;;;;5013176;28;20188;-52
2023/06/27 06:29:25;;;;;;;2.08;0.95;;;;;;;;;;5013732;28;20188;-51
2023/06/27 06:31:51;;;;;;;1.10;0.80;;;;;;;;;;5013705;28;20574;-51
2023/06/27 06:34:17;;;;;;;3.38;1.15;;;;;;;;;;4997138;28;20189;-52
2023/06/27 06:36:43;;;;;;;2.63;1.20;;;;;;;;;;5015548;28;20523;-52
2023/06/27 06:39:09;;;;;;;2.60;0.80;;;;;;;;;;5011875;28;20489;-52
2023/06/27 06:41:35;;;;;;;3.88;1.48;;;;;;;;;;5014268;28;20199;-52
2023/06/27 06:44:00;;;;;;;3.97;1.00;;;;;;;;;;5023766;28;20197;-52
2023/06/27 06:46:26;;;;;;;3.15;1.08;;;;;;;;;;5016462;28;20255;-52
2023/06/27 06:48:52;;;;;;;1.85;1.00;;;;;;;;;;5018621;28;20665;-52
2023/06/27 06:51:18;;;;;;;2.83;1.20;;;;;;;;;;5019692;28;20272;-52
2023/06/27 06:53:44;;;;;;;3.08;1.02;;;;;;;;;;5022984;28;20310;-53
2023/06/27 06:56:10;;;;;;;1.05;0.80;;;;;;;;;;5012330;28;20483;-52
2023/06/27 06:58:36;;;;;;;3.15;1.00;;;;;;;;;;4995902;28;20184;-52
2023/06/27 07:01:02;;;;;;;2.50;1.02;;;;;;;;;;5008716;28;20183;-52
2023/06/27 07:03:28;;;;;;;3.83;1.00;;;;;;;;;;5005332;28;20184;-52
2023/06/27 07:05:54;;;;;;;2.45;0.93;;;;;;;;;;5016063;28;20610;-52
2023/06/27 07:08:20;;;;;;;4.43;1.35;;;;;;;;;;5016752;28;20193;-52
2023/06/27 07:10:46;;;;;;;4.07;1.27;;;;;;;;;;5016388;28;20207;-52
2023/06/27 07:13:12;;;;;;;1.30;0.90;;;;;;;;;;5016611;28;20188;-52
2023/06/27 07:15:37;;;;;;;3.42;1.10;;;;;;;;;;5000411;28;20288;-52
2023/06/27 07:18:03;;;;;;;3.85;1.02;;;;;;;;;;5015398;28;20188;-52
2023/06/27 07:20:29;;;;;;;2.20;0.70;;;;;;;;;;5015911;28;20247;-52
2023/06/27 07:22:55;;;;;;;1.83;1.17;;;;;;;;;;5022424;28;20278;-52
2023/06/27 07:25:21;;;;;;;1.65;0.90;;;;;;;;;;5024013;28;20196;-52
2023/06/27 07:27:47;;;;;;;1.98;1.02;;;;;;;;;;4998431;28;20220;-52
2023/06/27 07:30:13;;;;;;;1.50;1.10;;;;;;;;;;5015922;28;20585;-52
2023/06/27 07:32:39;;;;;;;1.52;0.80;;;;;;;;;;5020148;28;20241;-52
2023/06/27 07:35:05;;;;;;;2.28;1.25;;;;;;;;;;5015777;28;20188;-52
2023/06/27 07:37:31;;;;;;;3.53;1.02;;;;;;;;;;5017212;28;20572;-52
2023/06/27 07:40:00;;;;;;;2.95;0.90;;;;;;;;;;5008555;28;20199;-52
2023/06/27 07:42:26;;;;;;;2.83;0.90;;;;;;;;;;5012784;28;20184;-52
2023/06/27 07:44:52;;;;;;;2.15;0.77;;;;;;;;;;5000251;28;20189;-53
2023/06/27 07:47:18;;;;;;;2.08;0.80;;;;;;;;;;5015630;28;20306;-53
2023/06/27 07:49:44;;;;;;;2.45;1.00;;;;;;;;;;5015550;28;20199;-52
2023/06/27 07:52:11;;;;;;;3.42;0.98;;;;;;;;;;5015220;28;20216;-52
2023/06/27 07:54:37;;;;;;;1.75;0.90;;;;;;;;;;4991246;28;20279;-52
2023/06/27 07:57:03;;;;;;;2.67;0.80;;;;;;;;;;5014074;28;20724;-52
2023/06/27 07:59:29;;;;;;;2.75;1.10;;;;;;;;;;4999116;28;20203;-52
2023/06/27 08:01:55;;;;;;;4.38;1.05;;;;;;;;;;5007342;28;20189;-52
2023/06/27 08:04:21;;;;;;;1.13;0.77;;;;;;;;;;5020960;28;20180;-52
2023/06/27 08:06:47;;;;;;;2.47;0.90;;;;;;;;;;5014512;28;20567;-52
2023/06/27 08:09:13;;;;;;;2.67;1.10;;;;;;;;;;5015373;28;20235;-52
2023/06/27 08:11:39;;;;;;;2.20;1.02;;;;;;;;;;5011341;28;20231;-52
2023/06/27 08:14:05;;;;;;;4.80;1.10;;;;;;;;;;5016705;28;20230;-52
2023/06/27 08:16:33;;;;;;;1.15;0.80;;;;;;;;;;5016318;28;20234;-52
2023/06/27 08:18:58;;;;;;;1.05;0.77;;;;;;;;;;5015260;28;20207;-52
2023/06/27 08:21:24;;;;;;;1.90;0.80;;;;;;;;;;5014401;28;20192;-52
2023/06/27 08:23:50;;;;;;;7.88;0.90;;;;;;;;;;5017627;28;20181;-52
2023/06/27 08:26:17;;;;;;;1.98;1.00;;;;;;;;;;5014214;28;20503;-52
2023/06/27 08:28:43;;;;;;;1.70;0.85;;;;;;;;;;4998150;28;20188;-52
2023/06/27 08:31:09;;;;;;;1.52;0.80;;;;;;;;;;5015319;28;20216;-52
2023/06/27 08:33:35;;;;;;;1.35;0.70;;;;;;;;;;5019788;28;20215;-52
2023/06/27 08:36:01;;;;;;;2.45;0.98;;;;;;;;;;5013799;28;20481;-52
2023/06/27 08:38:27;;;;;;;0.93;0.80;;;;;;;;;;5014929;28;20192;-52
2023/06/27 08:40:54;;;;;;;1.83;1.00;;;;;;;;;;5017515;28;20179;-52
2023/06/27 08:43:20;;;;;;;1.35;0.80;;;;;;;;;;5019394;28;20271;-52
2023/06/27 08:45:47;;;;;;;1.30;0.88;;;;;;;;;;5015413;28;20185;-52
2023/06/27 08:48:14;;;;;;;1.48;1.00;;;;;;;;;;5014628;28;20444;-52
2023/06/27 08:50:41;;;;;;;1.05;0.80;;;;;;;;;;5014789;28;20199;-52
2023/06/27 08:53:08;;;;;;;1.60;0.80;;;;;;;;;;5017395;28;20195;-52
2023/06/27 08:55:40;;;;;;;4.75;0.90;;;;;;;;;;5014784;28;20287;-52
2023/06/27 08:58:09;;;;;;;1.95;0.90;;;;;;;;;;5014880;28;20214;-52
2023/06/27 09:00:35;;;;;;;1.42;0.80;;;;;;;;;;4997868;28;20200;-52
2023/06/27 09:03:02;;;;;;;1.42;0.88;;;;;;;;;;5013876;28;20279;-52
2023/06/27 09:05:29;;;;;;;1.85;0.80;;;;;;;;;;5013191;28;20238;-52
2023/06/27 09:07:55;;;;;;;2.70;0.88;;;;;;;;;;5013975;28;20199;-52
2023/06/27 09:10:21;;;;;;;1.92;0.70;;;;;;;;;;5014513;28;20270;-52
2023/06/27 09:12:48;;;;;;;1.40;0.85;;;;;;;;;;5014468;28;20555;-52
2023/06/27 09:15:14;;;;;;;1.35;0.90;;;;;;;;;;5013885;28;20185;-52
2023/06/27 09:17:40;;;;;;;1.75;0.90;;;;;;;;;;5013624;28;20187;-52
2023/06/27 09:20:07;;;;;;;1.95;0.80;;;;;;;;;;5013269;28;20185;-52
2023/06/27 09:22:33;;;;;;;2.15;0.90;;;;;;;;;;5017107;28;20203;-52
2023/06/27 09:25:11;;;;;;;2.20;1.13;;;;;;;;;;5016059;28;20192;-52
2023/06/27 09:27:38;;;;;;;1.52;0.98;;;;;;;;;;5013991;28;20228;-52
2023/06/27 09:30:07;;;;;;;2.55;0.90;;;;;;;;;;5006970;28;20188;-52
2023/06/27 09:32:34;;;;;;;3.35;0.88;;;;;;;;;;5019494;28;20184;-52
2023/06/27 09:35:01;;;;;;;1.25;0.70;;;;;;;;;;5013832;28;20188;-52
2023/06/27 09:37:33;;;;;;;4.50;1.00;;;;;;;;;;5013426;28;20216;-52
2023/06/27 09:40:16;;;;;;;2.17;0.82;;;;;;;;;;5013878;28;20439;-52
2023/06/27 09:42:49;;;;;;;1.13;0.70;;;;;;;;;;5018811;28;20246;-52
2023/06/27 09:45:15;;;;;;;1.73;0.80;;;;;;;;;;5013651;28;20410;-52
2023/06/27 09:47:42;;;;;;;1.27;0.80;;;;;;;;;;5013403;28;20188;-52
2023/06/27 09:50:08;;;;;;;1.40;0.80;;;;;;;;;;5012108;28;20188;-52
2023/06/27 09:52:34;;;;;;;2.70;1.10;;;;;;;;;;5014067;28;20180;-52
2023/06/27 09:55:00;;;;;;;2.08;0.90;;;;;;;;;;5012899;28;20234;-52
2023/06/27 09:57:26;;;;;;;2.22;0.80;;;;;;;;;;5013211;28;20208;-52
2023/06/27 09:59:59;;;;;;;2.80;1.00;;;;;;;;;;5013830;28;20176;-52
2023/06/27 10:02:31;;;;;;;1.35;0.90;;;;;;;;;;5018453;28;20184;-52
2023/06/27 10:04:58;;;;;;;2.03;0.73;;;;;;;;;;5013822;28;20451;-52
2023/06/27 10:07:24;;;;;;;2.58;0.90;;;;;;;;;;5012892;28;20196;-52
2023/06/27 10:09:50;;;;;;;1.25;1.00;;;;;;;;;;5013261;28;20215;-52
2023/06/27 10:12:17;;;;;;;2.80;0.65;;;;;;;;;;5012348;28;20315;-52
2023/06/27 10:14:47;;;;;;;1.00;0.70;;;;;;;;;;5013297;28;20176;-52
2023/06/27 10:17:18;;;;;;;1.90;0.90;;;;;;;;;;5015243;28;20208;-52
2023/06/27 10:19:44;;;;;;;1.48;0.80;;;;;;;;;;5016808;28;20250;-52
2023/06/27 10:22:12;;;;;;;2.45;1.00;;;;;;;;;;5017571;28;20796;-52
2023/06/27 10:24:42;;;;;;;0.80;0.80;;;;;;;;;;5019557;28;20184;-52
2023/06/27 10:27:09;;;;;;;2.45;1.20;;;;;;;;;;5022626;28;20216;-52
2023/06/27 10:29:44;;;;;;;1.77;0.90;;;;;;;;;;5000149;28;20203;-52
2023/06/27 10:32:10;;;;;;;3.05;0.70;;;;;;;;;;5017649;28;20194;-52
2023/06/27 10:34:40;;;;;;;2.08;0.90;;;;;;;;;;5016978;28;20180;-52
2023/06/27 10:37:10;;;;;;;3.53;1.17;;;;;;;;;;4998777;28;20204;-52
2023/06/27 10:39:37;;;;;;;1.85;0.90;;;;;;;;;;5012023;28;20296;-52
2023/06/27 10:42:04;;;;;;;1.35;0.90;;;;;;;;;;5024495;28;20589;-52
2023/06/27 10:44:31;;;;;;;1.33;0.93;;;;;;;;;;5016657;28;20188;-52
2023/06/27 10:47:15;;;;;;;1.23;0.80;;;;;;;;;;5016234;28;20650;-52
2023/06/27 10:49:45;;;;;;;2.33;0.82;;;;;;;;;;5017207;28;20573;-52
2023/06/27 10:52:11;;;;;;;1.13;0.90;;;;;;;;;;5021120;28;20181;-52
2023/06/27 10:54:42;;;;;;;1.10;1.00;;;;;;;;;;5016528;28;20193;-52
2023/06/27 10:57:08;;;;;;;1.15;0.80;;;;;;;;;;5016061;28;20479;-52
2023/06/27 10:59:34;;;;;;;0.80;0.60;;;;;;;;;;5015347;28;20226;-52
2023/06/27 11:02:02;;;;;;;1.00;0.88;;;;;;;;;;5024221;28;20457;-52
2023/06/27 11:04:40;;;;;;;1.63;0.77;;;;;;;;;;5016333;28;20177;-52
2023/06/27 11:07:07;;;;;;;1.83;1.13;;;;;;;;;;4999039;28;20571;-52
2023/06/27 11:09:34;;;;;;;1.50;0.80;;;;;;;;;;5015757;28;20250;-52
2023/06/27 11:12:09;;;;;;;2.00;0.90;;;;;;;;;;5016534;28;20797;-52
2023/06/27 11:14:38;;;;;;;1.30;0.90;;;;;;;;;;5016646;28;20218;-52
2023/06/27 11:17:04;;;;;;;2.50;0.82;;;;;;;;;;5015674;28;20210;-52
2023/06/27 11:19:34;;;;;;;1.48;0.80;;;;;;;;;;5016325;28;20208;-52
2023/06/27 11:22:00;;;;;;;1.25;0.80;;;;;;;;;;5019919;28;20196;-52
2023/06/27 11:24:26;;;;;;;2.35;0.90;;;;;;;;;;5018572;28;20192;-52
2023/06/27 11:26:53;;;;;;;1.85;0.90;;;;;;;;;;5016020;28;20180;-52
2023/06/27 11:29:20;;;;;;;1.05;0.77;;;;;;;;;;5015568;28;20299;-52
2023/06/27 11:31:46;;;;;;;2.22;0.95;;;;;;;;;;5023400;28;20180;-52
2023/06/27 11:34:12;;;;;;;2.13;0.93;;;;;;;;;;5016291;28;20263;-52
2023/06/27 11:36:41;;;;;;;2.20;1.00;;;;;;;;;;5015054;28;20220;-52
2023/06/27 11:39:07;;;;;;;2.78;1.27;;;;;;;;;;5016130;28;20555;-52
2023/06/27 11:41:33;;;;;;;1.77;0.75;;;;;;;;;;5016232;28;20173;-52
2023/06/27 11:43:59;;;;;;;2.00;1.10;;;;;;;;;;5020426;28;20185;-52
2023/06/27 11:46:25;;;;;;;1.35;0.95;;;;;;;;;;5015187;28;20276;-52
2023/06/27 11:48:51;;;;;;;1.33;0.80;;;;;;;;;;5015544;28;20239;-52
2023/06/27 11:51:17;;;;;;;1.98;0.82;;;;;;;;;;5002342;28;20176;-52
2023/06/27 11:53:50;;;;;;;3.17;0.90;;;;;;;;;;5016205;28;20185;-52
2023/06/27 11:56:17;;;;;;;2.35;0.75;;;;;;;;;;5015181;28;20208;-52
2023/06/27 11:58:45;;;;;;;1.13;0.75;;;;;;;;;;5015133;28;20223;-52
2023/06/27 12:01:13;;;;;;;1.30;0.80;;;;;;;;;;5015730;28;20177;-52
2023/06/27 12:03:38;;;;;;;3.80;1.30;;;;;;;;;;5015553;28;20226;-52
2023/06/27 12:06:04;;;;;;;1.48;1.00;;;;;;;;;;5010127;28;20424;-52
2023/06/27 12:08:34;;;;;;;1.90;1.00;;;;;;;;;;5014502;28;20288;-52
2023/06/27 12:11:02;;;;;;;1.65;1.05;;;;;;;;;;5015593;28;20211;-52
2023/06/27 12:13:37;;;;;;;2.22;0.90;;;;;;;;;;5015422;28;20272;-52
2023/06/27 12:16:04;;;;;;;1.25;0.95;;;;;;;;;;5017585;28;20195;-52
2023/06/27 12:18:30;;;;;;;1.67;0.95;;;;;;;;;;5015794;28;20217;-52
2023/06/27 12:20:57;;;;;;;1.20;0.82;;;;;;;;;;5015038;28;20192;-52
2023/06/27 12:23:24;;;;;;;0.90;0.80;;;;;;;;;;5015044;28;20180;-52
2023/06/27 12:25:49;;;;;;;1.67;0.90;;;;;;;;;;5014117;28;20180;-52
2023/06/27 12:28:16;;;;;;;1.65;1.10;;;;;;;;;;5019375;28;20214;-52
2023/06/27 12:30:42;;;;;;;2.28;0.98;;;;;;;;;;5014938;28;20239;-52
2023/06/27 12:33:08;;;;;;;0.80;0.80;;;;;;;;;;5015359;28;20184;-52
2023/06/27 12:35:34;;;;;;;2.03;1.10;;;;;;;;;;5014670;28;20326;-52
2023/06/27 12:38:00;;;;;;;2.92;1.08;;;;;;;;;;5008000;28;20185;-52
2023/06/27 12:40:26;;;;;;;1.70;1.08;;;;;;;;;;5013955;28;20180;-52
2023/06/27 12:42:53;;;;;;;3.40;1.10;;;;;;;;;;5014930;28;20573;-52
2023/06/27 12:45:19;;;;;;;2.25;1.08;;;;;;;;;;5014407;28;20569;-52
2023/06/27 12:47:45;;;;;;;3.80;1.20;;;;;;;;;;5013968;28;20184;-52
2023/06/27 12:50:12;;;;;;;0.80;0.80;;;;;;;;;;5014888;28;20176;-53
2023/06/27 12:52:38;;;;;;;2.25;1.02;;;;;;;;;;5019276;28;20181;-52
2023/06/27 12:55:04;;;;;;;1.75;0.93;;;;;;;;;;4995779;28;20189;-52
2023/06/27 12:57:31;;;;;;;0.98;0.93;;;;;;;;;;5012244;28;20291;-52
2023/06/27 12:59:57;;;;;;;2.08;0.90;;;;;;;;;;5014120;28;20177;-52
2023/06/27 13:02:23;;;;;;;1.00;0.90;;;;;;;;;;5014501;28;20191;-53
2023/06/27 13:04:48;;;;;;;2.53;1.05;;;;;;;;;;5016559;28;20626;-52
2023/06/27 13:07:17;;;;;;;1.55;0.80;;;;;;;;;;5004115;28;20181;-52
2023/06/27 13:09:43;;;;;;;1.38;1.05;;;;;;;;;;5014436;28;20208;-52
2023/06/27 13:12:10;;;;;;;1.38;1.00;;;;;;;;;;5015041;28;20194;-52
2023/06/27 13:14:36;;;;;;;4.53;1.42;;;;;;;;;;5016094;28;20267;-52
2023/06/27 13:17:02;;;;;;;1.27;1.02;;;;;;;;;;5020598;28;20299;-52
2023/06/27 13:19:28;;;;;;;2.15;0.82;;;;;;;;;;5014086;28;20191;-52
2023/06/27 13:21:54;;;;;;;3.42;1.17;;;;;;;;;;5014086;28;20200;-52
2023/06/27 13:24:21;;;;;;;4.25;1.40;;;;;;;;;;5020842;28;20192;-52
2023/06/27 13:26:47;;;;;;;2.00;0.90;;;;;;;;;;5014010;28;20180;-52
2023/06/27 13:29:15;;;;;;;2.08;1.13;;;;;;;;;;5014108;28;20334;-52
2023/06/27 13:31:41;;;;;;;2.03;1.27;;;;;;;;;;5011260;28;20302;-52
2023/06/27 13:34:07;;;;;;;2.35;1.00;;;;;;;;;;5009313;28;20267;-52
2023/06/27 13:36:33;;;;;;;2.58;1.10;;;;;;;;;;5003206;28;20208;-52
2023/06/27 13:39:03;;;;;;;2.00;1.08;;;;;;;;;;5007723;28;20292;-52
2023/06/27 13:41:29;;;;;;;2.53;1.30;;;;;;;;;;5019057;28;20204;-52
2023/06/27 13:43:55;;;;;;;1.00;0.90;;;;;;;;;;5013017;28;20931;-52
2023/06/27 13:46:21;;;;;;;3.17;1.10;;;;;;;;;;5012526;28;20200;-53
2023/06/27 13:48:47;;;;;;;1.75;1.17;;;;;;;;;;5013976;28;20206;-52
2023/06/27 13:51:13;;;;;;;0.98;0.98;;;;;;;;;;5012650;28;20184;-52
2023/06/27 13:53:39;;;;;;;2.17;1.23;;;;;;;;;;5013355;28;20264;-52
2023/06/27 13:56:05;;;;;;;4.13;1.10;;;;;;;;;;5012969;28;20203;-52
2023/06/27 13:58:31;;;;;;;1.60;1.20;;;;;;;;;;5013405;28;20184;-52
2023/06/27 14:00:59;;;;;;;2.03;0.98;;;;;;;;;;4996567;28;20308;-52
2023/06/27 14:03:26;;;;;;;1.45;0.82;;;;;;;;;;5013626;28;20563;-52
2023/06/27 14:05:51;;;;;;;4.25;1.02;;;;;;;;;;5013162;28;20179;-52
2023/06/27 14:08:17;;;;;;;3.22;1.15;;;;;;;;;;5012950;28;20605;-52
2023/06/27 14:10:44;;;;;;;3.15;1.20;;;;;;;;;;5013246;28;20754;-52
2023/06/27 14:13:10;;;;;;;3.03;1.10;;;;;;;;;;5013916;28;20275;-52
2023/06/27 14:15:37;;;;;;;2.42;1.00;;;;;;;;;;5013260;28;20247;-52
2023/06/27 14:18:03;;;;;;;1.95;1.10;;;;;;;;;;5013023;28;20172;-52
2023/06/27 14:20:29;;;;;;;1.10;0.90;;;;;;;;;;5015491;28;20498;-52
2023/06/27 14:22:58;;;;;;;5.43;1.10;;;;;;;;;;5014155;28;20203;-52
2023/06/27 14:25:25;;;;;;;1.08;0.88;;;;;;;;;;5023367;28;20636;-52
2023/06/27 14:27:51;;;;;;;1.75;1.08;;;;;;;;;;5020148;28;20190;-52
2023/06/27 14:30:18;;;;;;;3.50;1.02;;;;;;;;;;5025058;28;20195;-52
2023/06/27 14:32:44;;;;;;;2.17;1.30;;;;;;;;;;5014996;28;20168;-52
2023/06/27 14:35:10;;;;;;;0.95;0.77;;;;;;;;;;5018308;28;20187;-52
2023/06/27 14:37:36;;;;;;;3.50;1.20;;;;;;;;;;4994649;28;20204;-52
2023/06/27 14:40:02;;;;;;;1.23;1.13;;;;;;;;;;5018427;28;20204;-52